createdAt,value
2023-04-28T00:00:32.487Z,93816.72
2023-04-28T00:01:29.171Z,93876.97
2023-04-28T00:02:27.241Z,93854.84
2023-04-28T00:03:24.230Z,93878.34
2023-04-28T00:04:21.527Z,93876.09
2023-04-28T00:05:18.846Z,93882.72
2023-04-28T00:06:15.697Z,93879.59
2023-04-28T00:07:12.536Z,93876.50
2023-04-28T00:08:09.121Z,93878.03
2023-04-28T00:09:05.865Z,93874.53
2023-04-28T00:10:02.503Z,93876.50
2023-04-28T00:10:59.154Z,93880.31
2023-04-28T00:11:55.727Z,93875.50
2023-04-28T00:12:52.331Z,93876.06
2023-04-28T00:13:48.930Z,93882.13
2023-04-28T00:14:45.511Z,93874.16
2023-04-28T00:15:42.099Z,93874.56
2023-04-28T00:16:38.851Z,93870.56
2023-04-28T00:17:35.539Z,93793.97
2023-04-28T00:18:33.686Z,93865.38
2023-04-28T00:19:30.451Z,93820.13
2023-04-28T00:20:27.097Z,93876.69
2023-04-28T00:21:23.699Z,93862.94
2023-04-28T00:22:20.592Z,93836.97
2023-04-28T00:23:17.136Z,93870.00
2023-04-28T00:24:13.907Z,93871.84
2023-04-28T00:25:10.861Z,93845.25
2023-04-28T00:26:07.429Z,93878.22
2023-04-28T00:27:04.179Z,93860.13
2023-04-28T00:28:01.709Z,93877.44
2023-04-28T00:28:58.427Z,93857.06
2023-04-28T00:29:55.144Z,93846.53
2023-04-28T00:30:51.820Z,93879.53
2023-04-28T00:31:48.441Z,93874.94
2023-04-28T00:32:45.112Z,93863.81
2023-04-28T00:33:43.100Z,93878.56
2023-04-28T00:34:39.799Z,93842.28
2023-04-28T00:35:36.494Z,93883.22
2023-04-28T00:36:33.441Z,93865.28
2023-04-28T00:37:30.005Z,93886.84
2023-04-28T00:38:27.013Z,93890.84
2023-04-28T00:39:23.593Z,93884.22
2023-04-28T00:40:20.229Z,93886.09
2023-04-28T00:41:16.894Z,93888.09
2023-04-28T00:42:14.577Z,93897.06
2023-04-28T00:43:11.196Z,93899.63
2023-04-28T00:44:07.890Z,93863.63
2023-04-28T00:45:07.207Z,93852.94
2023-04-28T00:46:03.923Z,93887.84
2023-04-28T00:47:01.144Z,93892.69
2023-04-28T00:47:58.864Z,93895.91
2023-04-28T00:48:56.615Z,93896.41
2023-04-28T00:49:54.057Z,93892.47
2023-04-28T00:50:52.044Z,93863.44
2023-04-28T00:51:48.700Z,93893.00
2023-04-28T00:52:45.777Z,93891.91
2023-04-28T00:53:43.827Z,93889.22
2023-04-28T00:54:40.508Z,93893.25
2023-04-28T00:55:38.171Z,93887.94
2023-04-28T00:56:35.464Z,93888.91
2023-04-28T00:57:32.357Z,93901.66
2023-04-28T00:58:30.448Z,93893.72
2023-04-28T00:59:27.127Z,93852.03
2023-04-28T01:00:24.002Z,93885.56
2023-04-28T01:01:20.669Z,93863.72
2023-04-28T01:02:18.556Z,93889.94
2023-04-28T01:03:15.474Z,93892.16
2023-04-28T01:04:12.482Z,93891.38
2023-04-28T01:05:10.449Z,93890.19
2023-04-28T01:06:09.139Z,93888.97
2023-04-28T01:07:05.783Z,93891.22
2023-04-28T01:08:03.159Z,93888.03
2023-04-28T01:08:59.778Z,93874.94
2023-04-28T01:09:56.797Z,93895.03
2023-04-28T01:10:53.564Z,93892.09
2023-04-28T01:11:50.154Z,93900.09
2023-04-28T01:12:46.721Z,93894.34
2023-04-28T01:13:43.328Z,93907.78
2023-04-28T01:14:40.215Z,93885.69
2023-04-28T01:15:37.028Z,93897.50
2023-04-28T01:16:34.976Z,93898.56
2023-04-28T01:17:31.735Z,93899.44
2023-04-28T01:18:28.940Z,93916.84
2023-04-28T01:19:26.124Z,93905.66
2023-04-28T01:20:22.724Z,93904.88
2023-04-28T01:21:32.559Z,93906.25
2023-04-28T01:22:29.341Z,93911.22
2023-04-28T01:23:26.065Z,93888.84
2023-04-28T01:24:22.723Z,93901.56
2023-04-28T01:25:19.309Z,93904.41
2023-04-28T01:26:16.030Z,93910.31
2023-04-28T01:27:12.670Z,93910.16
2023-04-28T01:28:10.621Z,93906.53
2023-04-28T01:29:07.216Z,93921.00
2023-04-28T01:30:04.060Z,93890.41
2023-04-28T01:31:00.702Z,93901.97
2023-04-28T01:31:57.563Z,93897.84
2023-04-28T01:32:54.344Z,93912.91
2023-04-28T01:33:51.014Z,93909.06
2023-04-28T01:34:47.751Z,93909.50
2023-04-28T01:35:44.603Z,93908.84
2023-04-28T01:36:41.431Z,93873.06
2023-04-28T01:37:38.050Z,93908.53
2023-04-28T01:38:34.791Z,93831.09
2023-04-28T01:39:31.431Z,93903.41
2023-04-28T01:40:28.144Z,93906.91
2023-04-28T01:41:25.000Z,93910.75
2023-04-28T01:42:21.587Z,93913.59
2023-04-28T01:43:18.283Z,93909.91
2023-04-28T01:44:15.292Z,93907.31
2023-04-28T01:45:12.221Z,93906.91
2023-04-28T01:46:08.944Z,93899.75
2023-04-28T01:47:05.702Z,93912.94
2023-04-28T01:48:02.374Z,93907.81
2023-04-28T01:48:59.074Z,93904.63
2023-04-28T01:49:55.849Z,93906.69
2023-04-28T01:50:52.401Z,93854.97
2023-04-28T01:51:49.199Z,93907.63
2023-04-28T01:52:45.995Z,93885.66
2023-04-28T01:53:42.858Z,93913.44
2023-04-28T01:54:39.409Z,93878.03
2023-04-28T01:55:36.140Z,93909.94
2023-04-28T01:56:32.725Z,93910.47
2023-04-28T01:57:29.438Z,93875.28
2023-04-28T01:58:26.255Z,93911.88
2023-04-28T01:59:22.946Z,93914.00
2023-04-28T02:00:19.697Z,93904.19
2023-04-28T02:01:16.607Z,93910.28
2023-04-28T02:02:13.252Z,93907.47
2023-04-28T02:03:10.076Z,93890.88
2023-04-28T02:04:06.953Z,93915.03
2023-04-28T02:05:03.665Z,93911.59
2023-04-28T02:06:00.365Z,93918.59
2023-04-28T02:06:57.003Z,93913.97
2023-04-28T02:07:53.684Z,93915.31
2023-04-28T02:08:50.837Z,93920.81
2023-04-28T02:09:47.472Z,93902.91
2023-04-28T02:10:45.038Z,93916.19
2023-04-28T02:11:41.670Z,93924.88
2023-04-28T02:12:38.404Z,93923.09
2023-04-28T02:13:35.035Z,93916.50
2023-04-28T02:14:34.680Z,93917.25
2023-04-28T02:15:31.404Z,93916.34
2023-04-28T02:16:28.150Z,93914.84
2023-04-28T02:17:24.909Z,93913.19
2023-04-28T02:18:21.624Z,93912.34
2023-04-28T02:19:18.236Z,93917.59
2023-04-28T02:20:14.985Z,93913.41
2023-04-28T02:21:12.581Z,93920.31
2023-04-28T02:22:09.185Z,93915.56
2023-04-28T02:23:05.784Z,93918.47
2023-04-28T02:24:02.429Z,93910.66
2023-04-28T02:24:59.166Z,93865.25
2023-04-28T02:26:03.738Z,93903.06
2023-04-28T02:27:00.451Z,93920.75
2023-04-28T02:27:57.516Z,93911.09
2023-04-28T02:28:54.385Z,93928.56
2023-04-28T02:29:51.750Z,93921.84
2023-04-28T02:30:48.390Z,93918.53
2023-04-28T02:31:45.183Z,93911.06
2023-04-28T02:32:41.841Z,93924.22
2023-04-28T02:33:38.866Z,93920.44
2023-04-28T02:34:35.623Z,93924.09
2023-04-28T02:35:32.440Z,93927.19
2023-04-28T02:36:29.131Z,93916.59
2023-04-28T02:37:26.374Z,93926.16
2023-04-28T02:38:23.010Z,93927.09
2023-04-28T02:39:21.905Z,93927.22
2023-04-28T02:40:18.708Z,93920.03
2023-04-28T02:41:15.690Z,93924.97
2023-04-28T02:42:12.340Z,93933.69
2023-04-28T02:43:08.928Z,93933.25
2023-04-28T02:44:05.600Z,93891.22
2023-04-28T02:45:02.182Z,93801.22
2023-04-28T02:45:59.535Z,93933.69
2023-04-28T02:46:56.239Z,93930.34
2023-04-28T02:47:53.032Z,93930.34
2023-04-28T02:48:49.593Z,93928.28
2023-04-28T02:49:46.399Z,93939.22
2023-04-28T02:50:42.991Z,93940.78
2023-04-28T02:51:40.122Z,93939.16
2023-04-28T02:52:36.958Z,93937.44
2023-04-28T02:53:33.617Z,93944.97
2023-04-28T02:54:30.231Z,93909.91
2023-04-28T02:55:26.825Z,93885.75
2023-04-28T02:56:23.497Z,93946.75
2023-04-28T02:57:20.755Z,93943.69
2023-04-28T02:58:18.371Z,93926.91
2023-04-28T02:59:15.365Z,93942.53
2023-04-28T03:00:12.677Z,93944.53
2023-04-28T03:01:09.475Z,93936.25
2023-04-28T03:02:06.211Z,93930.06
2023-04-28T03:03:02.955Z,93948.91
2023-04-28T03:04:00.413Z,93954.56
2023-04-28T03:04:57.475Z,93928.41
2023-04-28T03:05:56.606Z,93893.09
2023-04-28T03:06:53.287Z,93947.94
2023-04-28T03:07:49.969Z,93945.75
2023-04-28T03:08:46.594Z,93952.84
2023-04-28T03:09:43.241Z,93951.25
2023-04-28T03:10:39.977Z,93924.19
2023-04-28T03:11:37.169Z,93945.97
2023-04-28T03:12:33.763Z,93951.75
2023-04-28T03:13:30.448Z,93954.78
2023-04-28T03:14:27.466Z,93948.72
2023-04-28T03:15:24.319Z,93941.53
2023-04-28T03:16:21.239Z,93952.84
2023-04-28T03:17:18.281Z,93945.78
2023-04-28T03:18:14.932Z,93942.69
2023-04-28T03:19:11.649Z,93947.56
2023-04-28T03:20:09.659Z,93936.66
2023-04-28T03:21:06.560Z,93948.66
2023-04-28T03:22:03.264Z,93958.00
2023-04-28T03:22:59.986Z,93959.25
2023-04-28T03:23:56.689Z,93956.06
2023-04-28T03:24:53.384Z,93955.09
2023-04-28T03:25:50.099Z,93957.81
2023-04-28T03:26:46.747Z,93957.81
2023-04-28T03:27:43.356Z,93951.34
2023-04-28T03:28:39.944Z,93959.34
2023-04-28T03:29:36.542Z,93966.75
2023-04-28T03:30:33.235Z,93968.69
2023-04-28T03:31:29.833Z,93966.16
2023-04-28T03:32:26.837Z,93967.31
2023-04-28T03:33:23.530Z,93961.66
2023-04-28T03:34:20.113Z,93973.88
2023-04-28T03:35:19.577Z,93980.56
2023-04-28T03:36:16.660Z,93919.47
2023-04-28T03:37:13.986Z,93976.81
2023-04-28T03:38:10.646Z,93970.72
2023-04-28T03:39:07.301Z,93978.81
2023-04-28T03:40:04.197Z,93989.06
2023-04-28T03:41:00.874Z,93985.13
2023-04-28T03:41:57.556Z,93984.44
2023-04-28T03:42:54.410Z,93993.34
2023-04-28T03:43:52.025Z,93992.28
2023-04-28T03:44:48.624Z,93991.41
2023-04-28T03:45:45.351Z,93993.91
2023-04-28T03:46:42.101Z,93954.09
2023-04-28T03:47:38.962Z,93990.63
2023-04-28T03:48:35.561Z,93998.25
2023-04-28T03:49:32.162Z,93984.31
2023-04-28T03:50:28.941Z,93988.78
2023-04-28T03:51:25.866Z,94003.22
2023-04-28T03:52:22.431Z,93989.22
2023-04-28T03:53:19.002Z,94000.28
2023-04-28T03:54:15.882Z,94002.59
2023-04-28T03:55:12.560Z,94007.78
2023-04-28T03:56:09.233Z,94014.88
2023-04-28T03:57:05.911Z,94005.09
2023-04-28T03:58:02.606Z,94011.69
2023-04-28T03:58:59.214Z,94007.16
2023-04-28T03:59:55.828Z,94012.13
2023-04-28T04:00:52.506Z,94013.13
2023-04-28T04:01:49.174Z,94014.16
2023-04-28T04:02:46.100Z,94021.59
2023-04-28T04:03:43.126Z,94013.44
2023-04-28T04:04:39.982Z,94018.56
2023-04-28T04:05:36.734Z,94019.94
2023-04-28T04:06:34.026Z,94021.47
2023-04-28T04:07:30.724Z,94027.41
2023-04-28T04:08:27.431Z,94022.59
2023-04-28T04:09:24.121Z,94028.66
2023-04-28T04:10:20.721Z,94022.03
2023-04-28T04:11:17.624Z,93946.41
2023-04-28T04:12:14.219Z,94008.13
2023-04-28T04:13:10.976Z,93966.97
2023-04-28T04:14:07.537Z,94036.28
2023-04-28T04:15:04.578Z,93994.25
2023-04-28T04:16:01.335Z,94031.44
2023-04-28T04:16:58.045Z,94007.22
2023-04-28T04:17:54.768Z,94033.47
2023-04-28T04:18:51.427Z,94029.31
2023-04-28T04:19:48.110Z,94032.41
2023-04-28T04:20:44.818Z,94046.09
2023-04-28T04:21:41.514Z,94040.22
2023-04-28T04:22:38.174Z,94047.94
2023-04-28T04:23:34.883Z,94041.56
2023-04-28T04:24:31.502Z,94014.53
2023-04-28T04:25:28.371Z,94032.97
2023-04-28T04:26:25.088Z,94030.72
2023-04-28T04:27:21.806Z,94033.06
2023-04-28T04:28:18.478Z,94032.00
2023-04-28T04:29:15.080Z,94032.56
2023-04-28T04:30:12.122Z,94033.84
2023-04-28T04:31:08.877Z,94034.53
2023-04-28T04:32:05.540Z,94023.72
2023-04-28T04:33:02.345Z,94026.28
2023-04-28T04:33:59.068Z,94036.28
2023-04-28T04:34:55.921Z,94044.00
2023-04-28T04:35:53.078Z,94035.22
2023-04-28T04:36:49.707Z,94008.63
2023-04-28T04:37:46.323Z,94036.38
2023-04-28T04:38:43.078Z,94002.00
2023-04-28T04:39:39.811Z,94026.13
2023-04-28T04:40:36.827Z,94041.66
2023-04-28T04:41:33.567Z,94040.81
2023-04-28T04:42:30.169Z,94027.22
2023-04-28T04:43:26.866Z,94046.47
2023-04-28T04:44:23.509Z,94048.03
2023-04-28T04:45:20.132Z,94040.50
2023-04-28T04:46:16.856Z,94035.63
2023-04-28T04:47:13.483Z,94046.50
2023-04-28T04:48:10.104Z,94036.69
2023-04-28T04:49:07.644Z,94048.03
2023-04-28T04:50:04.589Z,94045.69
2023-04-28T04:51:01.246Z,94051.31
2023-04-28T04:51:57.856Z,94054.34
2023-04-28T04:52:56.699Z,93994.66
2023-04-28T04:53:53.350Z,94053.72
2023-04-28T04:54:49.985Z,94052.50
2023-04-28T04:55:47.275Z,94035.59
2023-04-28T04:56:43.893Z,94056.06
2023-04-28T04:57:40.487Z,94039.69
2023-04-28T04:58:37.148Z,94052.78
2023-04-28T04:59:33.757Z,94057.63
2023-04-28T05:00:30.374Z,94053.44
2023-04-28T05:01:27.103Z,94061.41
2023-04-28T05:02:23.789Z,94054.69
2023-04-28T05:03:20.817Z,94059.66
2023-04-28T05:04:18.048Z,94055.97
2023-04-28T05:05:21.161Z,94056.88
2023-04-28T05:06:19.362Z,94064.78
2023-04-28T05:07:15.940Z,94058.50
2023-04-28T05:08:12.904Z,94062.06
2023-04-28T05:09:09.704Z,94060.63
2023-04-28T05:10:07.504Z,94059.19
2023-04-28T05:11:04.925Z,94041.22
2023-04-28T05:12:01.719Z,94057.06
2023-04-28T05:12:58.291Z,94071.19
2023-04-28T05:13:54.916Z,94069.28
2023-04-28T05:14:51.577Z,94061.94
2023-04-28T05:15:48.143Z,94068.78
2023-04-28T05:16:44.946Z,94063.44
2023-04-28T05:17:41.741Z,94017.44
2023-04-28T05:18:38.513Z,94069.41
2023-04-28T05:19:35.467Z,94034.16
2023-04-28T05:20:32.404Z,94066.75
2023-04-28T05:21:29.073Z,94027.69
2023-04-28T05:22:26.420Z,94067.88
2023-04-28T05:23:23.565Z,94071.81
2023-04-28T05:24:23.784Z,94073.78
2023-04-28T05:25:20.442Z,94073.97
2023-04-28T05:26:17.135Z,94069.88
2023-04-28T05:27:13.733Z,94074.44
2023-04-28T05:28:11.767Z,94015.78
2023-04-28T05:29:08.562Z,94069.38
2023-04-28T05:30:10.306Z,94074.50
2023-04-28T05:31:07.976Z,94077.75
2023-04-28T05:32:04.853Z,94074.38
2023-04-28T05:33:01.681Z,94039.19
2023-04-28T05:33:58.984Z,94075.78
2023-04-28T05:34:55.728Z,94078.09
2023-04-28T05:35:52.421Z,94064.34
2023-04-28T05:36:49.112Z,94072.78
2023-04-28T05:37:45.754Z,94073.47
2023-04-28T05:38:43.039Z,94072.16
2023-04-28T05:39:39.760Z,94073.53
2023-04-28T05:40:36.372Z,94073.63
2023-04-28T05:41:34.257Z,94070.78
2023-04-28T05:42:31.034Z,94070.28
2023-04-28T05:43:27.683Z,94051.94
2023-04-28T05:44:24.644Z,94076.34
2023-04-28T05:45:21.645Z,94072.16
2023-04-28T05:46:30.067Z,94072.94
2023-04-28T05:47:27.957Z,94079.50
2023-04-28T05:48:24.799Z,94041.22
2023-04-28T05:49:21.404Z,94078.88
2023-04-28T05:50:18.906Z,94072.44
2023-04-28T05:51:15.653Z,94073.56
2023-04-28T05:52:12.452Z,94077.28
2023-04-28T05:53:09.197Z,94076.53
2023-04-28T05:54:06.153Z,94068.38
2023-04-28T05:55:02.865Z,94072.72
2023-04-28T05:55:59.511Z,94079.81
2023-04-28T05:56:56.362Z,94077.88
2023-04-28T05:57:54.559Z,94081.72
2023-04-28T05:58:51.430Z,94080.38
2023-04-28T05:59:48.116Z,94074.81
2023-04-28T06:00:44.789Z,94081.84
2023-04-28T06:01:41.350Z,94084.00
2023-04-28T06:02:38.056Z,94081.69
2023-04-28T06:03:35.066Z,94081.66
2023-04-28T06:04:32.205Z,94082.56
2023-04-28T06:05:29.550Z,94088.66
2023-04-28T06:06:27.838Z,94087.28
2023-04-28T06:07:24.531Z,94069.03
2023-04-28T06:08:21.191Z,94089.91
2023-04-28T06:09:19.254Z,94090.25
2023-04-28T06:10:16.241Z,94066.09
2023-04-28T06:11:12.832Z,94085.56
2023-04-28T06:12:09.483Z,94081.34
2023-04-28T06:13:06.634Z,94081.38
2023-04-28T06:14:03.205Z,94085.72
2023-04-28T06:14:59.838Z,94087.28
2023-04-28T06:15:56.927Z,94082.13
2023-04-28T06:16:53.600Z,94086.81
2023-04-28T06:17:50.232Z,94087.56
2023-04-28T06:18:48.526Z,94075.88
2023-04-28T06:19:46.363Z,94082.59
2023-04-28T06:20:43.028Z,94090.53
2023-04-28T06:21:39.596Z,94068.69
2023-04-28T06:22:36.984Z,94074.47
2023-04-28T06:23:33.628Z,94091.59
2023-04-28T06:24:30.194Z,94086.94
2023-04-28T06:25:26.944Z,94090.53
2023-04-28T06:26:24.274Z,94044.88
2023-04-28T06:27:20.975Z,94097.75
2023-04-28T06:28:17.586Z,94094.75
2023-04-28T06:29:14.201Z,94092.13
2023-04-28T06:30:13.516Z,94091.97
2023-04-28T06:31:10.160Z,94091.16
2023-04-28T06:32:06.741Z,94098.22
2023-04-28T06:33:03.574Z,94089.81
2023-04-28T06:34:00.362Z,94085.03
2023-04-28T06:34:58.413Z,94088.97
2023-04-28T06:35:55.394Z,94089.59
2023-04-28T06:36:51.998Z,94089.97
2023-04-28T06:37:48.555Z,94094.84
2023-04-28T06:38:45.954Z,94080.91
2023-04-28T06:39:42.627Z,94082.94
2023-04-28T06:40:40.859Z,94094.53
2023-04-28T06:41:37.425Z,94086.03
2023-04-28T06:42:34.028Z,94090.66
2023-04-28T06:43:30.692Z,94083.72
2023-04-28T06:44:27.326Z,94080.97
2023-04-28T06:45:24.073Z,94085.38
2023-04-28T06:46:20.819Z,94058.31
2023-04-28T06:47:17.550Z,94055.66
2023-04-28T06:48:14.219Z,94099.25
2023-04-28T06:49:10.898Z,94088.72
2023-04-28T06:50:08.210Z,94096.09
2023-04-28T06:51:05.804Z,94087.44
2023-04-28T06:52:02.432Z,94088.50
2023-04-28T06:52:59.098Z,94092.41
2023-04-28T06:53:55.814Z,94086.00
2023-04-28T06:54:52.530Z,94090.72
2023-04-28T06:55:49.095Z,94094.94
2023-04-28T06:56:45.677Z,94065.50
2023-04-28T06:57:42.631Z,94091.06
2023-04-28T06:58:39.380Z,94090.13
2023-04-28T06:59:36.088Z,94090.38
2023-04-28T07:00:32.994Z,94089.09
2023-04-28T07:01:29.629Z,94086.63
2023-04-28T07:02:27.244Z,94044.94
2023-04-28T07:03:24.193Z,94088.22
2023-04-28T07:04:21.318Z,94095.56
2023-04-28T07:05:18.713Z,94089.41
2023-04-28T07:06:16.715Z,94086.69
2023-04-28T07:07:13.341Z,94089.44
2023-04-28T07:08:10.149Z,94091.66
2023-04-28T07:09:06.820Z,94088.56
2023-04-28T07:10:04.386Z,94081.34
2023-04-28T07:11:04.752Z,94092.53
2023-04-28T07:12:01.772Z,94093.97
2023-04-28T07:12:59.295Z,94091.03
2023-04-28T07:13:56.139Z,94068.66
2023-04-28T07:14:52.871Z,94091.41
2023-04-28T07:15:49.562Z,94089.34
2023-04-28T07:16:46.360Z,94073.75
2023-04-28T07:17:43.373Z,94084.81
2023-04-28T07:18:40.238Z,94088.06
2023-04-28T07:20:33.504Z,94079.13
2023-04-28T07:21:30.156Z,93990.34
2023-04-28T07:22:26.882Z,94088.63
2023-04-28T07:23:23.591Z,94079.75
2023-04-28T07:24:20.282Z,94086.47
2023-04-28T07:25:19.072Z,94088.56
2023-04-28T07:26:18.832Z,94078.09
2023-04-28T07:27:15.543Z,94081.31
2023-04-28T07:28:13.985Z,94006.09
2023-04-28T07:29:13.488Z,94077.06
2023-04-28T07:30:25.959Z,94080.16
2023-04-28T07:31:23.723Z,94080.91
2023-04-28T07:32:20.441Z,94082.94
2023-04-28T07:33:17.132Z,94084.81
2023-04-28T07:34:13.797Z,94076.88
2023-04-28T07:35:10.537Z,94078.16
2023-04-28T07:36:07.666Z,94078.69
2023-04-28T07:37:04.835Z,94081.44
2023-04-28T07:38:02.506Z,94085.00
2023-04-28T07:39:01.007Z,94078.78
2023-04-28T07:39:57.736Z,94081.19
2023-04-28T07:40:54.402Z,94080.09
2023-04-28T07:41:51.103Z,94081.88
2023-04-28T07:42:48.027Z,94085.22
2023-04-28T07:43:44.703Z,94076.84
2023-04-28T07:44:41.645Z,94080.81
2023-04-28T07:45:40.006Z,94082.06
2023-04-28T07:46:36.888Z,94078.44
2023-04-28T07:47:33.703Z,94081.94
2023-04-28T07:48:30.513Z,94080.19
2023-04-28T07:49:28.828Z,94020.44
2023-04-28T07:50:25.400Z,94074.53
2023-04-28T07:51:22.128Z,94045.81
2023-04-28T07:52:18.739Z,94077.97
2023-04-28T07:53:15.365Z,94080.31
2023-04-28T07:54:12.064Z,94078.88
2023-04-28T07:55:08.831Z,94068.97
2023-04-28T07:56:05.897Z,94073.44
2023-04-28T07:57:06.224Z,94076.53
2023-04-28T07:58:02.993Z,94076.88
2023-04-28T07:58:59.724Z,94080.63
2023-04-28T07:59:56.582Z,94037.50
2023-04-28T08:00:53.144Z,94083.00
2023-04-28T08:01:49.925Z,94080.41
2023-04-28T08:02:46.943Z,94076.56
2023-04-28T08:03:43.958Z,94085.97
2023-04-28T08:04:41.561Z,94080.31
2023-04-28T08:05:39.690Z,94052.28
2023-04-28T08:06:36.621Z,94085.63
2023-04-28T08:07:33.389Z,94060.00
2023-04-28T08:08:30.802Z,94079.69
2023-04-28T08:09:27.440Z,94076.84
2023-04-28T08:10:24.197Z,94048.16
2023-04-28T08:11:22.453Z,94079.97
2023-04-28T08:12:19.041Z,94037.53
2023-04-28T08:13:16.746Z,94077.09
2023-04-28T08:14:14.067Z,94078.91
2023-04-28T08:15:11.409Z,94034.91
2023-04-28T08:16:08.546Z,94062.31
2023-04-28T08:17:05.184Z,94073.56
2023-04-28T08:18:02.022Z,94079.22
2023-04-28T08:18:59.822Z,94077.53
2023-04-28T08:19:56.674Z,94081.78
2023-04-28T08:20:53.424Z,94079.28
2023-04-28T08:21:50.014Z,94084.41
2023-04-28T08:22:46.896Z,94073.47
2023-04-28T08:23:43.553Z,94077.66
2023-04-28T08:24:40.572Z,94081.03
2023-04-28T08:25:37.258Z,94060.03
2023-04-28T08:26:34.123Z,94075.13
2023-04-28T08:27:31.172Z,94077.09
2023-04-28T08:28:28.195Z,94086.53
2023-04-28T08:29:26.091Z,94072.69
2023-04-28T08:30:22.788Z,94077.72
2023-04-28T08:31:19.417Z,94073.97
2023-04-28T08:32:16.306Z,94069.66
2023-04-28T08:33:12.916Z,94077.72
2023-04-28T08:34:09.736Z,94067.66
2023-04-28T08:35:07.175Z,94047.34
2023-04-28T08:36:04.806Z,94070.38
2023-04-28T08:37:01.821Z,94051.78
2023-04-28T08:37:58.852Z,94069.13
2023-04-28T08:38:55.627Z,94066.38
2023-04-28T08:40:00.011Z,94068.63
2023-04-28T08:40:56.793Z,94065.53
2023-04-28T08:41:53.982Z,94065.69
2023-04-28T08:42:51.155Z,94063.34
2023-04-28T08:43:48.550Z,94055.59
2023-04-28T08:44:46.622Z,94047.75
2023-04-28T08:45:45.640Z,94061.28
2023-04-28T08:46:44.362Z,94061.59
2023-04-28T08:47:46.375Z,94058.78
2023-04-28T08:48:48.787Z,94065.78
2023-04-28T08:49:47.177Z,94055.25
2023-04-28T08:50:47.702Z,94059.38
2023-04-28T08:51:53.684Z,94051.63
2023-04-28T08:52:52.443Z,94058.47
2023-04-28T08:54:53.357Z,94066.25
2023-04-28T08:55:54.732Z,94055.16
2023-04-28T08:56:52.224Z,94051.44
2023-04-28T08:57:52.286Z,94055.34
2023-04-28T08:58:50.593Z,94031.13
2023-04-28T08:59:47.653Z,94057.31
2023-04-28T09:00:44.376Z,94058.44
2023-04-28T09:01:41.286Z,94052.06
2023-04-28T09:02:42.102Z,94060.41
2023-04-28T09:03:39.245Z,94050.56
2023-04-28T09:04:36.640Z,94051.19
2023-04-28T09:05:33.451Z,94055.63
2023-04-28T09:06:37.510Z,94014.81
2023-04-28T09:07:34.510Z,94049.38
2023-04-28T09:08:31.283Z,94042.09
2023-04-28T09:09:32.576Z,94051.34
2023-04-28T09:10:31.703Z,94043.38
2023-04-28T09:11:28.593Z,94052.13
2023-04-28T09:12:36.518Z,94047.75
2023-04-28T09:13:33.448Z,94040.38
2023-04-28T09:14:35.025Z,94046.06
2023-04-28T09:15:41.558Z,94055.59
2023-04-28T09:16:44.075Z,94005.06
2023-04-28T09:17:51.304Z,94018.88
2023-04-28T09:19:06.519Z,94040.72
2023-04-28T09:20:04.479Z,94042.06
2023-04-28T09:21:05.488Z,94043.88
2023-04-28T09:22:13.676Z,94025.84
2023-04-28T09:23:21.206Z,94029.19
2023-04-28T09:24:31.521Z,94040.97
2023-04-28T09:25:28.191Z,94008.59
2023-04-28T09:26:25.201Z,94035.63
2023-04-28T09:27:28.112Z,94035.53
2023-04-28T09:28:25.027Z,94005.66
2023-04-28T09:29:21.693Z,94029.41
2023-04-28T09:30:18.714Z,94034.09
2023-04-28T09:31:24.502Z,94036.34
2023-04-28T09:32:23.217Z,94026.34
2023-04-28T09:33:21.818Z,93977.28
2023-04-28T09:34:19.042Z,94022.53
2023-04-28T09:35:16.147Z,94025.53
2023-04-28T09:36:13.059Z,94012.59
2023-04-28T09:37:16.956Z,94015.44
2023-04-28T09:38:13.677Z,93976.09
2023-04-28T09:39:10.313Z,94017.91
2023-04-28T09:40:09.444Z,93996.81
2023-04-28T09:41:06.152Z,94020.25
2023-04-28T09:42:04.593Z,94014.78
2023-04-28T09:43:11.718Z,94003.69
2023-04-28T09:44:21.860Z,94010.16
2023-04-28T09:45:19.025Z,94007.13
2023-04-28T09:46:29.061Z,94003.25
2023-04-28T09:47:25.879Z,93967.91
2023-04-28T09:48:36.355Z,93961.47
2023-04-28T09:49:33.066Z,94013.47
2023-04-28T09:50:40.167Z,93997.72
2023-04-28T09:51:37.052Z,94007.09
2023-04-28T09:52:35.049Z,93997.09
2023-04-28T09:53:33.039Z,93958.78
2023-04-28T09:54:31.241Z,94005.28
2023-04-28T09:55:28.603Z,93941.16
2023-04-28T09:56:27.924Z,93995.28
2023-04-28T09:57:24.833Z,93973.78
2023-04-28T09:58:22.619Z,93999.63
2023-04-28T09:59:19.364Z,93991.63
2023-04-28T10:00:17.115Z,93996.44
2023-04-28T10:01:14.736Z,93996.66
2023-04-28T10:02:28.780Z,93998.25
2023-04-28T10:03:31.003Z,93991.50
2023-04-28T10:04:31.583Z,93992.03
2023-04-28T10:05:29.074Z,93992.00
2023-04-28T10:06:27.963Z,93957.44
2023-04-28T10:07:25.149Z,93986.34
2023-04-28T10:08:23.516Z,93901.94
2023-04-28T10:09:26.621Z,93995.91
2023-04-28T10:10:25.260Z,93922.78
2023-04-28T10:11:22.830Z,93980.28
2023-04-28T10:12:22.644Z,93955.72
2023-04-28T10:13:20.818Z,93983.16
2023-04-28T10:14:17.984Z,93990.81
2023-04-28T10:15:14.772Z,93986.81
2023-04-28T10:16:12.137Z,93986.19
2023-04-28T10:17:08.889Z,93962.69
2023-04-28T10:18:06.452Z,93986.13
2023-04-28T10:19:03.479Z,93985.78
2023-04-28T10:20:00.492Z,93950.09
2023-04-28T10:21:00.344Z,93879.06
2023-04-28T10:22:29.482Z,93984.50
2023-04-28T10:23:36.695Z,93991.81
2023-04-28T10:24:33.307Z,93988.25
2023-04-28T10:25:36.668Z,93971.75
2023-04-28T10:27:02.097Z,93981.06
2023-04-28T10:28:00.218Z,93963.66
2023-04-28T10:28:57.958Z,93984.84
2023-04-28T10:29:54.645Z,93973.00
2023-04-28T10:31:16.964Z,93991.72
2023-04-28T10:32:23.525Z,93975.81
2023-04-28T10:33:20.298Z,93983.13
2023-04-28T10:34:24.362Z,93982.56
2023-04-28T10:35:36.481Z,93976.66
2023-04-28T10:36:54.926Z,93981.63
2023-04-28T10:38:05.710Z,93973.38
2023-04-28T10:39:10.881Z,93981.63
2023-04-28T10:40:36.073Z,93969.00
2023-04-28T10:41:33.267Z,93977.50
2023-04-28T10:42:52.672Z,93966.06
2023-04-28T10:43:50.449Z,93917.25
2023-04-28T10:44:47.087Z,93962.38
2023-04-28T10:45:50.334Z,93953.56
2023-04-28T10:47:08.106Z,93956.06
2023-04-28T10:48:06.394Z,93947.88
2023-04-28T10:49:03.076Z,93949.28
2023-04-28T10:50:11.364Z,93952.84
2023-04-28T10:51:09.429Z,93951.66
2023-04-28T10:52:40.816Z,93948.34
2023-04-28T10:53:47.107Z,93946.34
2023-04-28T10:55:22.814Z,93955.00
2023-04-28T10:56:21.577Z,93956.47
2023-04-28T10:57:19.168Z,93940.53
2023-04-28T10:58:15.906Z,93952.84
2023-04-28T10:59:27.410Z,93947.75
2023-04-28T11:00:29.223Z,93938.13
2023-04-28T11:01:32.053Z,93941.28
2023-04-28T11:02:43.837Z,93937.81
2023-04-28T11:03:47.815Z,93936.72
2023-04-28T11:05:10.812Z,93937.69
2023-04-28T11:06:29.234Z,93946.91
2023-04-28T11:07:26.011Z,93932.81
2023-04-28T11:08:25.292Z,93938.59
2023-04-28T11:09:22.031Z,93938.53
2023-04-28T11:10:18.689Z,93936.25
2023-04-28T11:11:20.779Z,93927.81
2023-04-28T11:12:19.207Z,93929.13
2023-04-28T11:13:34.551Z,93936.13
2023-04-28T11:14:35.628Z,93926.19
2023-04-28T11:15:32.541Z,93892.81
2023-04-28T11:16:29.843Z,93925.72
2023-04-28T11:17:40.460Z,93933.94
2023-04-28T11:18:55.476Z,93938.19
2023-04-28T11:19:56.995Z,93934.91
2023-04-28T11:20:57.942Z,93925.03
2023-04-28T11:21:56.703Z,93920.66
2023-04-28T11:22:53.494Z,93922.38
2023-04-28T11:23:50.590Z,93886.38
2023-04-28T11:25:03.380Z,93920.59
2023-04-28T11:25:59.970Z,93919.75